Time;durP1;ratioP1;P1;durP2;ratioP2;P2;SDS_P1;SDS_P2;PMS_P1;PMS_P2;Temp;Humidity;BMP_temperature;BMP_pressure;BME280_temperature;BME280_humidity;BME280_pressure;Samples;Min_cycle;Max_cycle;Signal;HPM_P1;HPM_P2
2023/07/25 00:00:58;;;;;;;2.37;1.37;;;25.80;83.90;;;;;;10750505;33;20024;-72
2023/07/25 00:07:00;;;;;;;4.00;1.50;;;25.70;84.10;;;;;;10751448;33;20055;-73
2023/07/25 00:13:02;;;;;;;3.00;1.42;;;25.70;83.90;;;;;;10751407;33;20025;-73
2023/07/25 00:19:04;;;;;;;2.45;1.42;;;25.60;83.90;;;;;;10753377;32;20028;-73
2023/07/25 00:25:06;;;;;;;4.53;2.22;;;25.70;83.80;;;;;;10755988;32;20075;-73
2023/07/25 00:31:08;;;;;;;4.47;1.85;;;25.70;83.70;;;;;;10757141;33;20067;-73
2023/07/25 00:37:10;;;;;;;2.80;1.48;;;25.60;83.50;;;;;;10755969;33;20047;-73
2023/07/25 00:43:12;;;;;;;4.85;1.98;;;25.60;83.30;;;;;;10755423;33;20354;-73
2023/07/25 00:49:14;;;;;;;2.05;1.08;;;25.60;83.10;;;;;;10756709;33;20044;-73
2023/07/25 00:55:16;;;;;;;4.97;1.33;;;25.40;83.40;;;;;;10756549;33;20028;-73
2023/07/25 01:01:19;;;;;;;5.95;2.12;;;25.40;83.30;;;;;;10755155;33;20091;-73
2023/07/25 01:07:22;;;;;;;4.35;2.03;;;25.40;83.30;;;;;;10756173;33;20025;-73
2023/07/25 01:13:24;;;;;;;6.70;1.67;;;25.40;83.20;;;;;;10754718;33;20021;-73
2023/07/25 01:19:29;;;;;;;4.50;2.40;;;25.40;83.20;;;;;;10754711;33;20012;-73
2023/07/25 01:25:31;;;;;;;3.17;1.85;;;25.50;82.90;;;;;;10755113;33;20431;-73
2023/07/25 01:31:33;;;;;;;4.20;2.75;;;25.40;82.80;;;;;;10753544;33;20035;-73
2023/07/25 01:37:35;;;;;;;5.32;2.58;;;25.40;82.80;;;;;;10754207;33;20326;-73
2023/07/25 01:43:37;;;;;;;4.07;1.62;;;25.30;83.20;;;;;;10754487;33;20351;-73
2023/07/25 01:49:39;;;;;;;2.67;1.23;;;25.30;83.40;;;;;;10753513;32;20075;-73
2023/07/25 01:55:42;;;;;;;4.25;2.47;;;25.30;83.30;;;;;;10754842;33;20398;-73
2023/07/25 02:01:44;;;;;;;5.18;2.65;;;25.20;83.40;;;;;;10753417;33;20029;-73
2023/07/25 02:07:46;;;;;;;5.75;3.33;;;25.10;83.60;;;;;;10753254;33;20025;-73
2023/07/25 02:13:48;;;;;;;3.87;2.62;;;25.00;83.60;;;;;;10753430;33;20082;-73
2023/07/25 02:19:50;;;;;;;4.35;2.12;;;24.90;83.40;;;;;;10752937;33;20020;-73
2023/07/25 02:25:52;;;;;;;4.60;2.83;;;24.90;83.60;;;;;;10753359;33;20394;-73
2023/07/25 02:31:54;;;;;;;3.87;2.25;;;24.90;83.70;;;;;;10753749;33;20047;-73
2023/07/25 02:37:56;;;;;;;4.15;2.62;;;24.80;83.60;;;;;;10753632;33;20024;-73
2023/07/25 02:43:58;;;;;;;5.68;2.08;;;24.90;83.60;;;;;;10754091;27;20029;-72
2023/07/25 02:50:00;;;;;;;6.57;2.47;;;24.80;83.40;;;;;;10752722;33;20043;-73
2023/07/25 02:56:02;;;;;;;6.95;2.70;;;24.80;83.70;;;;;;10752063;33;20039;-73
2023/07/25 03:02:04;;;;;;;5.97;2.20;;;24.90;83.60;;;;;;10752409;33;20021;-73
2023/07/25 03:08:06;;;;;;;4.12;2.25;;;24.70;83.80;;;;;;10752837;33;20048;-73
2023/07/25 03:14:08;;;;;;;1.50;1.08;;;24.60;83.90;;;;;;10751531;33;20016;-73
2023/07/25 03:20:11;;;;;;;3.22;1.87;;;24.50;83.80;;;;;;10752013;33;20013;-73
2023/07/25 03:26:13;;;;;;;3.28;1.92;;;24.40;84.10;;;;;;10751187;33;20047;-73
2023/07/25 03:32:43;;;;;;;3.08;1.73;;;24.50;83.80;;;;;;10752314;33;20417;-73
2023/07/25 03:38:45;;;;;;;3.95;1.42;;;24.60;83.50;;;;;;10752203;33;20351;-73
2023/07/25 03:44:47;;;;;;;4.65;2.15;;;24.50;83.70;;;;;;10750705;33;20437;-73
2023/07/25 03:50:49;;;;;;;5.45;2.33;;;24.60;83.70;;;;;;10750625;32;20064;-73
2023/07/25 03:56:51;;;;;;;3.97;1.65;;;24.50;83.90;;;;;;10753687;33;20029;-73
2023/07/25 04:02:53;;;;;;;3.83;1.87;;;24.50;83.80;;;;;;10756715;33;20029;-73
2023/07/25 04:08:55;;;;;;;6.72;2.05;;;24.50;83.60;;;;;;10756700;33;20425;-72
2023/07/25 04:14:58;;;;;;;2.92;1.40;;;24.50;83.70;;;;;;10756546;33;20334;-73
2023/07/25 04:21:00;;;;;;;9.85;2.78;;;24.30;84.00;;;;;;10756337;33;20052;-74
2023/07/25 04:27:02;;;;;;;2.28;1.35;;;24.20;84.70;;;;;;10756200;33;20094;-74
2023/07/25 04:33:04;;;;;;;5.80;2.12;;;24.10;84.20;;;;;;10755984;33;20017;-72
2023/07/25 04:39:06;;;;;;;11.02;6.57;;;23.90;84.00;;;;;;10755798;33;20043;-72
2023/07/25 04:45:09;;;;;;;10.55;4.85;;;23.40;81.60;;;;;;10755507;33;20355;-70
2023/07/25 04:51:10;;;;;;;9.18;4.75;;;22.90;82.30;;;;;;10755349;33;20426;-72
2023/07/25 04:57:12;;;;;;;8.32;3.75;;;22.80;82.50;;;;;;10755485;32;20032;-72
2023/07/25 05:03:14;;;;;;;6.62;2.45;;;22.90;83.20;;;;;;10755119;33;20046;-73
2023/07/25 05:09:18;;;;;;;3.42;2.10;;;23.20;83.30;;;;;;10754988;33;20029;-73
2023/07/25 05:15:21;;;;;;;4.90;2.12;;;23.40;83.40;;;;;;10754755;33;20345;-72
2023/07/25 05:21:23;;;;;;;3.78;1.90;;;23.40;83.60;;;;;;10754449;33;20024;-71
2023/07/25 05:27:25;;;;;;;9.25;3.53;;;23.50;83.60;;;;;;10754374;33;20012;-72
2023/07/25 05:33:27;;;;;;;4.12;2.87;;;23.60;83.90;;;;;;10750263;32;20056;-72
2023/07/25 05:39:29;;;;;;;5.87;2.40;;;23.70;83.90;;;;;;10753222;33;20032;-72
2023/07/25 05:45:31;;;;;;;4.47;2.85;;;23.80;83.90;;;;;;10753591;32;20059;-72
2023/07/25 05:51:33;;;;;;;5.22;2.72;;;24.00;84.10;;;;;;10753577;33;20017;-73
2023/07/25 05:57:35;;;;;;;6.40;2.90;;;24.00;84.10;;;;;;10753550;33;20016;-73
2023/07/25 06:03:36;;;;;;;4.78;2.90;;;24.20;84.10;;;;;;10753103;32;20032;-73
2023/07/25 06:09:39;;;;;;;10.57;3.22;;;24.10;83.90;;;;;;10750029;33;20033;-73
2023/07/25 06:15:41;;;;;;;5.05;2.90;;;24.10;84.00;;;;;;10752735;33;20021;-73
2023/07/25 06:21:43;;;;;;;6.50;2.78;;;24.20;83.70;;;;;;10752952;33;20025;-73
2023/07/25 06:27:45;;;;;;;5.50;2.92;;;24.30;84.00;;;;;;10752513;33;20306;-73
2023/07/25 06:34:11;;;;;;;4.97;2.50;;;24.30;83.90;;;;;;10752811;33;20276;-72
2023/07/25 06:40:14;;;;;;;5.37;2.75;;;24.30;83.90;;;;;;10752475;33;20033;-73
2023/07/25 06:46:16;;;;;;;2.80;1.62;;;24.30;83.90;;;;;;10752011;33;20051;-73
2023/07/25 06:52:20;;;;;;;5.72;3.10;;;24.20;84.30;;;;;;10751949;32;20433;-73
2023/07/25 06:58:53;;;;;;;5.55;2.53;;;24.20;84.20;;;;;;10751666;33;20021;-73
2023/07/25 07:04:57;;;;;;;6.03;2.75;;;24.40;84.30;;;;;;10751392;33;20342;-72
2023/07/25 07:10:59;;;;;;;4.82;2.90;;;24.40;84.10;;;;;;10747965;32;20055;-72
2023/07/25 07:17:01;;;;;;;4.50;2.97;;;24.20;84.00;;;;;;10748334;33;20024;-73
2023/07/25 07:23:05;;;;;;;6.50;3.55;;;24.20;84.30;;;;;;10751139;33;20024;-72
2023/07/25 07:29:33;;;;;;;6.18;2.70;;;24.20;84.10;;;;;;10754552;33;20550;-72
2023/07/25 07:35:35;;;;;;;5.55;3.15;;;24.30;84.20;;;;;;10757480;33;20017;-70
2023/07/25 07:41:37;;;;;;;4.87;3.08;;;24.30;84.40;;;;;;10757225;33;20050;-72
2023/07/25 07:47:39;;;;;;;9.65;3.92;;;24.30;84.90;;;;;;10757316;33;20047;-72
2023/07/25 07:53:42;;;;;;;12.98;2.92;;;24.40;85.00;;;;;;10756160;33;20024;-72
2023/07/25 07:59:44;;;;;;;4.93;3.10;;;24.50;85.10;;;;;;10755566;33;20021;-73
2023/07/25 08:05:46;;;;;;;5.72;3.10;;;24.70;85.20;;;;;;10754199;33;20055;-72
2023/07/25 08:11:49;;;;;;;4.82;3.25;;;24.80;85.10;;;;;;10756475;33;20055;-72
2023/07/25 08:17:51;;;;;;;4.90;3.12;;;24.80;85.40;;;;;;10756396;33;20020;-72
2023/07/25 08:23:54;;;;;;;4.70;2.72;;;24.70;85.70;;;;;;10756365;33;20048;-72
2023/07/25 08:29:56;;;;;;;6.20;3.03;;;24.70;86.20;;;;;;10753146;33;20300;-73
2023/07/25 08:35:59;;;;;;;3.67;2.50;;;24.70;86.50;;;;;;10755969;33;20039;-72
2023/07/25 08:42:05;;;;;;;3.83;2.37;;;24.60;86.30;;;;;;10755363;33;20060;-73
2023/07/25 08:48:12;;;;;;;2.95;1.52;;;24.50;86.30;;;;;;10755547;33;20269;-73
2023/07/25 08:54:33;;;;;;;2.37;1.53;;;24.40;86.20;;;;;;10754266;33;20044;-73
2023/07/25 09:00:35;;;;;;;6.70;2.20;;;24.30;86.20;;;;;;10754408;33;20437;-73
2023/07/25 09:06:37;;;;;;;3.87;2.37;;;24.30;86.20;;;;;;10754169;33;20028;-73
2023/07/25 09:12:40;;;;;;;4.53;1.60;;;24.30;86.50;;;;;;10754929;33;20166;-71
2023/07/25 09:18:42;;;;;;;5.03;2.62;;;24.20;86.50;;;;;;10754766;33;20039;-71
2023/07/25 09:24:44;;;;;;;6.35;2.90;;;24.10;86.80;;;;;;10753407;33;20024;-70
2023/07/25 09:30:48;;;;;;;3.83;2.08;;;24.00;87.00;;;;;;10742682;33;20055;-71
2023/07/25 09:36:50;;;;;;;3.45;1.98;;;24.00;87.00;;;;;;10717851;33;20139;-70
2023/07/25 09:42:53;;;;;;;4.95;2.62;;;23.90;87.00;;;;;;10716760;33;20411;-71
2023/07/25 09:48:55;;;;;;;5.68;2.92;;;23.90;87.30;;;;;;10716878;33;20026;-70
2023/07/25 09:54:57;;;;;;;2.75;1.92;;;24.00;87.40;;;;;;10717456;33;20380;-72
2023/07/25 10:01:02;;;;;;;2.05;1.58;;;24.30;86.80;;;;;;10716435;33;20040;-73
2023/07/25 10:07:05;;;;;;;2.85;1.85;;;24.70;86.10;;;;;;10716955;33;20039;-73
2023/07/25 10:13:09;;;;;;;10.02;5.15;;;24.80;85.20;;;;;;10716912;33;20029;-71
2023/07/25 10:19:11;;;;;;;10.18;3.83;;;24.80;84.70;;;;;;10716714;33;20044;-73
2023/07/25 10:25:29;;;;;;;3.45;2.37;;;24.80;84.40;;;;;;10716545;33;20387;-74
2023/07/25 10:31:34;;;;;;;3.17;2.20;;;24.70;84.10;;;;;;10716358;33;20025;-72
2023/07/25 10:37:44;;;;;;;5.50;2.50;;;24.90;84.00;;;;;;10716244;33;20043;-73
2023/07/25 10:43:46;;;;;;;7.35;3.05;;;25.20;83.80;;;;;;10427158;27;12085544;-73
2023/07/25 10:49:55;;;;;;;3.05;1.65;;;25.50;83.20;;;;;;10864939;32;20032;-73
2023/07/25 10:56:16;;;;;;;6.32;2.42;;;25.70;83.10;;;;;;10863834;32;20106;-72
2023/07/25 11:02:43;;;;;;;2.70;1.50;;;25.90;82.90;;;;;;10863915;32;20028;-73
2023/07/25 11:08:46;;;;;;;4.30;2.57;;;26.30;82.70;;;;;;10802849;32;20048;-73
2023/07/25 11:14:49;;;;;;;3.55;2.20;;;26.50;82.40;;;;;;10679251;33;20013;-73
2023/07/25 11:21:02;;;;;;;2.15;1.40;;;26.90;82.10;;;;;;10677855;33;20029;-72
2023/07/25 11:27:05;;;;;;;7.43;2.87;;;27.10;81.30;;;;;;10678794;33;20026;-73
2023/07/25 11:33:07;;;;;;;2.33;1.70;;;27.30;81.30;;;;;;10677953;33;20014;-73
2023/07/25 11:39:10;;;;;;;4.97;2.70;;;27.20;81.00;;;;;;10678760;33;20036;-73
2023/07/25 11:45:14;;;;;;;4.22;2.55;;;26.80;81.60;;;;;;10678519;33;20025;-72
2023/07/25 11:51:16;;;;;;;4.28;2.60;;;27.10;81.50;;;;;;10678526;33;20021;-71
2023/07/25 11:57:18;;;;;;;3.67;1.98;;;27.40;80.70;;;;;;10678334;33;20014;-73
2023/07/25 12:03:23;;;;;;;4.22;1.90;;;27.60;80.80;;;;;;10674538;33;20083;-73
2023/07/25 12:09:29;;;;;;;4.78;2.25;;;27.90;79.80;;;;;;10678057;33;20391;-73
2023/07/25 12:15:50;;;;;;;5.03;2.50;;;27.80;79.90;;;;;;10667192;33;20065;-73
2023/07/25 12:22:04;;;;;;;5.05;2.17;;;27.90;79.50;;;;;;10680094;33;20025;-73
2023/07/25 12:28:06;;;;;;;2.70;1.30;;;28.20;78.70;;;;;;10683768;33;20018;-72
2023/07/25 12:34:08;;;;;;;5.10;2.10;;;28.30;78.60;;;;;;10683670;33;20021;-73
2023/07/25 12:40:10;;;;;;;8.25;2.72;;;28.30;78.80;;;;;;10683236;33;20351;-73
2023/07/25 12:46:12;;;;;;;4.65;2.08;;;28.30;78.50;;;;;;10679509;33;20313;-74
2023/07/25 12:52:16;;;;;;;4.68;2.47;;;28.40;77.70;;;;;;10683120;33;20048;-74
2023/07/25 12:58:18;;;;;;;5.03;2.58;;;28.60;77.40;;;;;;10682881;33;20013;-74
2023/07/25 13:04:20;;;;;;;5.78;2.37;;;28.70;76.50;;;;;;10682217;33;20026;-74
2023/07/25 13:10:22;;;;;;;5.12;2.30;;;28.80;75.60;;;;;;10682642;33;20392;-74
2023/07/25 13:16:24;;;;;;;5.28;2.50;;;28.80;76.20;;;;;;10681281;33;20399;-74
2023/07/25 13:22:27;;;;;;;4.40;2.58;;;28.70;76.20;;;;;;10682235;33;20025;-74
2023/07/25 13:28:29;;;;;;;4.20;2.40;;;28.60;76.40;;;;;;10680043;33;20017;-75
2023/07/25 13:34:31;;;;;;;5.78;2.50;;;28.40;76.40;;;;;;10681933;33;20068;-74
2023/07/25 13:40:33;;;;;;;5.60;3.47;;;28.30;76.40;;;;;;10680935;33;20017;-75
2023/07/25 13:46:35;;;;;;;4.82;2.70;;;28.30;76.90;;;;;;10681387;33;20425;-73
2023/07/25 13:52:38;;;;;;;6.57;3.55;;;28.20;77.00;;;;;;10678806;33;20052;-74
2023/07/25 13:58:40;;;;;;;8.38;3.72;;;28.30;77.00;;;;;;10680960;33;20025;-73
2023/07/25 14:04:42;;;;;;;5.10;3.17;;;28.50;76.10;;;;;;10677601;33;20033;-74
2023/07/25 14:10:44;;;;;;;9.30;3.95;;;28.50;77.60;;;;;;10680858;33;20013;-74
2023/07/25 14:16:46;;;;;;;6.82;2.55;;;28.50;77.70;;;;;;10668364;33;20060;-73
2023/07/25 14:22:48;;;;;;;6.32;3.87;;;28.50;77.40;;;;;;10679863;33;20425;-73
2023/07/25 14:28:50;;;;;;;6.50;3.53;;;28.70;77.90;;;;;;10679614;33;20026;-73
2023/07/25 14:34:53;;;;;;;4.72;3.05;;;28.60;78.00;;;;;;10678688;33;20379;-74
2023/07/25 14:40:55;;;;;;;5.62;2.55;;;28.60;78.00;;;;;;10679485;33;20021;-74
2023/07/25 14:46:57;;;;;;;7.03;2.67;;;28.70;77.50;;;;;;10650035;33;20348;-74
2023/07/25 14:52:59;;;;;;;6.87;2.85;;;28.80;76.80;;;;;;10640626;33;20022;-74
2023/07/25 14:59:03;;;;;;;8.93;2.62;;;28.80;76.30;;;;;;10641376;33;20064;-74
2023/07/25 15:05:06;;;;;;;7.35;2.40;;;28.90;75.80;;;;;;10643079;33;20026;-74
2023/07/25 15:11:08;;;;;;;3.85;2.20;;;28.80;76.20;;;;;;10641138;33;20041;-74
2023/07/25 15:17:22;;;;;;;6.95;2.17;;;28.70;76.30;;;;;;10642560;33;20045;-74
2023/07/25 15:23:24;;;;;;;7.75;2.90;;;28.80;75.60;;;;;;10674199;32;20362;-74
2023/07/25 15:29:26;;;;;;;5.87;2.92;;;28.70;75.80;;;;;;10677671;33;20033;-73
2023/07/25 15:35:28;;;;;;;4.12;2.42;;;28.80;76.10;;;;;;10677561;33;20021;-74
2023/07/25 15:41:30;;;;;;;6.40;2.58;;;28.70;77.00;;;;;;10679094;33;20060;-73
2023/07/25 15:47:32;;;;;;;4.85;2.85;;;28.60;76.90;;;;;;10679306;33;20330;-74
2023/07/25 15:53:34;;;;;;;9.73;3.87;;;28.60;76.80;;;;;;10685072;33;20018;-73
2023/07/25 15:59:36;;;;;;;6.22;3.08;;;28.60;77.30;;;;;;10684828;33;20018;-74
2023/07/25 16:05:38;;;;;;;3.75;2.30;;;28.60;77.40;;;;;;10684909;33;20025;-73
2023/07/25 16:11:41;;;;;;;7.22;3.00;;;28.80;77.00;;;;;;10684908;33;20343;-73
2023/07/25 16:17:43;;;;;;;5.75;3.60;;;28.70;77.20;;;;;;10684738;33;20040;-74
2023/07/25 16:23:45;;;;;;;6.82;3.10;;;28.50;77.30;;;;;;10684582;33;20426;-72
2023/07/25 16:29:47;;;;;;;6.80;3.08;;;28.50;77.10;;;;;;10684677;33;20021;-72
2023/07/25 16:35:49;;;;;;;5.35;2.42;;;28.40;77.30;;;;;;10684390;33;20017;-74
2023/07/25 16:41:54;;;;;;;7.70;3.45;;;28.30;77.40;;;;;;10682288;33;20447;-73
2023/07/25 16:47:57;;;;;;;7.37;3.28;;;28.30;77.30;;;;;;10683114;33;20052;-73
2023/07/25 16:53:59;;;;;;;7.80;2.95;;;28.30;77.10;;;;;;10683595;33;20026;-72
2023/07/25 17:00:01;;;;;;;7.47;4.00;;;28.20;77.50;;;;;;10683235;33;20017;-73
2023/07/25 17:06:03;;;;;;;9.88;3.58;;;28.10;77.90;;;;;;10680799;33;20055;-73
2023/07/25 17:12:06;;;;;;;8.10;3.25;;;28.10;77.00;;;;;;10683093;33;20022;-73
2023/07/25 17:18:08;;;;;;;12.15;3.78;;;28.20;77.20;;;;;;10682359;33;20048;-73
2023/07/25 17:24:10;;;;;;;4.70;1.98;;;28.30;77.40;;;;;;10678983;33;20017;-73
2023/07/25 17:30:15;;;;;;;4.30;2.05;;;28.30;77.80;;;;;;10682025;33;20048;-73
2023/07/25 17:36:17;;;;;;;5.25;2.17;;;28.20;78.10;;;;;;10679024;33;20021;-73
2023/07/25 17:42:19;;;;;;;8.32;2.30;;;28.00;78.60;;;;;;10682660;33;20331;-73
2023/07/25 17:48:23;;;;;;;5.28;2.30;;;28.00;78.90;;;;;;10682219;33;20056;-73
2023/07/25 17:54:25;;;;;;;7.53;3.53;;;27.90;79.10;;;;;;10682641;33;20018;-73
2023/07/25 18:00:28;;;;;;;7.18;2.87;;;27.90;79.40;;;;;;10681326;33;20037;-73
2023/07/25 18:06:33;;;;;;;5.65;2.45;;;28.70;78.30;;;;;;10681426;33;20426;-73
2023/07/25 18:12:35;;;;;;;5.93;2.22;;;29.40;77.40;;;;;;10681683;33;20269;-73
2023/07/25 18:18:37;;;;;;;6.07;2.92;;;29.10;78.60;;;;;;10679693;33;20426;-73
2023/07/25 18:24:39;;;;;;;4.37;1.87;;;28.60;79.90;;;;;;10681718;33;20380;-73
2023/07/25 18:30:42;;;;;;;6.35;2.37;;;28.30;80.10;;;;;;10681669;33;20049;-73
2023/07/25 18:36:44;;;;;;;8.82;2.85;;;28.10;80.40;;;;;;10681380;33;20375;-73
2023/07/25 18:42:46;;;;;;;6.85;2.30;;;28.00;80.80;;;;;;10708631;27;20047;-73
2023/07/25 18:48:48;;;;;;;7.15;2.12;;;27.90;81.20;;;;;;10752901;33;20048;-73
2023/07/25 18:54:50;;;;;;;5.68;2.33;;;27.80;81.30;;;;;;10752881;33;20359;-73
2023/07/25 19:00:52;;;;;;;4.55;2.25;;;27.60;81.90;;;;;;10752355;33;20437;-73
2023/07/25 19:06:55;;;;;;;5.28;2.33;;;27.50;82.00;;;;;;10752003;33;20398;-73
2023/07/25 19:12:57;;;;;;;7.40;2.97;;;27.50;82.30;;;;;;10752039;33;20024;-73
2023/07/25 19:18:59;;;;;;;3.45;2.22;;;27.40;82.40;;;;;;10753293;33;20331;-73
2023/07/25 19:25:01;;;;;;;7.68;3.03;;;27.40;82.50;;;;;;10751561;33;20291;-73
2023/07/25 19:31:05;;;;;;;4.90;2.67;;;27.30;82.80;;;;;;10751788;33;20025;-73
2023/07/25 19:37:07;;;;;;;6.75;2.58;;;27.30;83.00;;;;;;10750880;32;20036;-73
2023/07/25 19:43:09;;;;;;;10.93;2.83;;;27.30;83.00;;;;;;10749807;33;20055;-73
2023/07/25 19:49:11;;;;;;;8.55;3.08;;;27.10;83.30;;;;;;10738552;32;20063;-74
2023/07/25 19:55:14;;;;;;;3.97;1.98;;;27.10;83.50;;;;;;10750660;33;20051;-73
2023/07/25 20:01:16;;;;;;;9.70;3.40;;;27.00;83.90;;;;;;10750622;33;20051;-73
2023/07/25 20:07:18;;;;;;;5.95;1.98;;;26.90;83.80;;;;;;10750365;33;20327;-73
2023/07/25 20:13:20;;;;;;;11.82;3.05;;;27.00;83.70;;;;;;10748440;33;20098;-73
2023/07/25 20:19:25;;;;;;;4.57;2.80;;;26.90;83.50;;;;;;10750233;33;20016;-73
2023/07/25 20:25:27;;;;;;;9.52;2.20;;;27.00;83.40;;;;;;10749896;33;20059;-73
2023/07/25 20:31:30;;;;;;;6.03;2.83;;;26.90;83.30;;;;;;10723223;33;20029;-73
2023/07/25 20:37:32;;;;;;;8.13;2.95;;;26.90;83.30;;;;;;10718355;33;20061;-73
2023/07/25 20:43:34;;;;;;;5.68;2.35;;;26.80;83.40;;;;;;10718733;33;20056;-73
2023/07/25 20:49:36;;;;;;;4.18;2.25;;;26.70;83.70;;;;;;10719383;33;20555;-73
2023/07/25 20:55:39;;;;;;;5.18;2.85;;;26.60;84.00;;;;;;10719137;33;20025;-73
2023/07/25 21:16:42;;;;;;;5.73;3.53;;;26.30;82.90;;;;;;10619277;32;12722247;-71
2023/07/25 21:22:44;;;;;;;6.18;3.58;;;25.10;81.10;;;;;;10970410;32;20126;-69
2023/07/25 21:28:46;;;;;;;11.30;4.82;;;24.90;82.60;;;;;;10969245;32;20165;-69
2023/07/25 21:34:48;;;;;;;6.20;3.17;;;24.80;83.80;;;;;;10968409;32;20023;-70
2023/07/25 21:41:02;;;;;;;5.55;2.72;;;24.80;84.40;;;;;;10997890;32;20095;-67
2023/07/25 21:47:05;;;;;;;8.57;3.35;;;24.70;84.50;;;;;;11010373;32;20026;-69
2023/07/25 21:53:07;;;;;;;3.85;2.05;;;24.50;84.90;;;;;;11010219;32;20037;-70
2023/07/25 21:59:09;;;;;;;3.65;1.95;;;24.30;85.20;;;;;;11010921;32;20014;-70
2023/07/25 22:05:11;;;;;;;2.90;1.52;;;24.30;85.20;;;;;;11009682;32;20072;-70
2023/07/25 22:11:13;;;;;;;3.15;1.77;;;24.40;85.20;;;;;;11010316;32;20052;-71
2023/07/25 22:17:15;;;;;;;3.45;1.50;;;24.40;85.00;;;;;;10986802;32;20015;-70
2023/07/25 22:23:17;;;;;;;3.97;1.70;;;24.30;85.00;;;;;;10984468;32;20418;-71
2023/07/25 22:29:20;;;;;;;1.55;1.12;;;24.30;85.00;;;;;;10984428;32;20019;-71
2023/07/25 22:35:22;;;;;;;8.85;1.40;;;24.40;84.90;;;;;;10984193;32;20026;-70
2023/07/25 22:41:24;;;;;;;2.00;1.20;;;24.40;84.70;;;;;;10980599;32;20045;-70
2023/07/25 22:47:26;;;;;;;4.97;1.55;;;24.20;83.10;;;;;;10983780;32;20033;-71
2023/07/25 22:53:28;;;;;;;2.70;1.42;;;24.10;83.70;;;;;;10982659;32;20034;-70
2023/07/25 22:59:30;;;;;;;2.17;1.23;;;24.20;84.00;;;;;;10983341;32;20048;-71
2023/07/25 23:05:59;;;;;;;2.60;1.48;;;24.30;83.90;;;;;;10983173;32;20026;-71
2023/07/25 23:12:00;;;;;;;3.55;2.30;;;24.30;84.20;;;;;;10982720;32;20058;-70
2023/07/25 23:18:02;;;;;;;2.30;1.58;;;24.30;84.40;;;;;;10982603;32;20015;-70
2023/07/25 23:24:05;;;;;;;3.62;1.55;;;24.50;84.30;;;;;;10982028;32;20014;-70
2023/07/25 23:30:07;;;;;;;4.10;2.03;;;24.40;84.40;;;;;;10982054;32;20030;-69
2023/07/25 23:36:09;;;;;;;2.17;1.70;;;24.30;84.20;;;;;;10981054;32;20045;-70
2023/07/25 23:42:11;;;;;;;3.90;2.25;;;24.30;84.60;;;;;;10981675;32;20046;-70
2023/07/25 23:48:13;;;;;;;7.00;2.35;;;24.30;84.50;;;;;;10981594;32;20014;-70
2023/07/25 23:54:16;;;;;;;4.37;2.10;;;24.40;84.30;;;;;;10981306;32;20015;-70
